Time;durP1;ratioP1;P1;durP2;ratioP2;P2;SDS_P1;SDS_P2;PMS_P1;PMS_P2;Temp;Humidity;BMP_temperature;BMP_pressure;BME280_temperature;BME280_humidity;BME280_pressure;Samples;Min_cycle;Max_cycle;Signal;HPM_P1;HPM_P2
2022/09/14 00:00:47;;;;;;;9.73;3.93;;;;;;;;;;3393842;42;20296;-61
2022/09/14 00:03:13;;;;;;;10.05;4.10;;;;;;;;;;3394021;42;20602;-62
2022/09/14 00:05:39;;;;;;;9.57;4.32;;;;;;;;;;3393739;42;20567;-61
2022/09/14 00:08:05;;;;;;;9.73;4.50;;;;;;;;;;3384404;42;20508;-63
2022/09/14 00:10:31;;;;;;;9.00;4.77;;;;;;;;;;3375243;42;20101;-62
2022/09/14 00:12:58;;;;;;;9.05;4.32;;;;;;;;;;3383521;42;20094;-61
2022/09/14 00:15:24;;;;;;;8.57;4.60;;;;;;;;;;3393127;42;20121;-61
2022/09/14 00:17:49;;;;;;;8.88;4.80;;;;;;;;;;3394626;42;20146;-60
2022/09/14 00:20:15;;;;;;;9.80;4.97;;;;;;;;;;3393549;42;20571;-61
2022/09/14 00:22:41;;;;;;;8.80;4.33;;;;;;;;;;3393833;42;20508;-61
2022/09/14 00:25:08;;;;;;;9.38;4.20;;;;;;;;;;3383293;42;20458;-61
2022/09/14 00:27:34;;;;;;;10.35;4.30;;;;;;;;;;3385108;42;20106;-60
2022/09/14 00:30:00;;;;;;;9.35;4.53;;;;;;;;;;3393414;42;20093;-61
2022/09/14 00:32:26;;;;;;;8.77;3.93;;;;;;;;;;3393480;42;20185;-61
2022/09/14 00:34:52;;;;;;;9.27;4.03;;;;;;;;;;3393515;42;20531;-61
2022/09/14 00:37:18;;;;;;;8.15;4.00;;;;;;;;;;3383127;42;20091;-60
2022/09/14 00:39:44;;;;;;;9.02;3.70;;;;;;;;;;3392490;42;20097;-60
2022/09/14 00:42:11;;;;;;;8.30;3.70;;;;;;;;;;3393630;42;20106;-61
2022/09/14 00:44:37;;;;;;;9.13;4.28;;;;;;;;;;3383752;42;20646;-61
2022/09/14 00:47:03;;;;;;;7.82;3.83;;;;;;;;;;3393682;42;20160;-61
2022/09/14 00:49:33;;;;;;;8.30;3.60;;;;;;;;;;3393318;42;20090;-61
2022/09/14 00:52:02;;;;;;;8.50;3.50;;;;;;;;;;3383109;42;20127;-62
2022/09/14 00:54:29;;;;;;;9.05;3.20;;;;;;;;;;3385479;42;20090;-61
2022/09/14 00:56:56;;;;;;;8.40;3.53;;;;;;;;;;3386239;42;20162;-61
2022/09/14 00:59:24;;;;;;;9.45;3.38;;;;;;;;;;3384005;42;20102;-62
2022/09/14 01:01:50;;;;;;;7.80;3.47;;;;;;;;;;3374279;42;20098;-60
2022/09/14 01:04:16;;;;;;;8.43;3.23;;;;;;;;;;3382721;42;20105;-60
2022/09/14 01:07:05;;;;;;;6.75;3.22;;;;;;;;;;3393370;42;20110;-61
2022/09/14 01:10:11;;;;;;;7.68;3.00;;;;;;;;;;3377642;42;20101;-61
2022/09/14 01:13:08;;;;;;;7.15;3.30;;;;;;;;;;3369745;42;20099;-63
2022/09/14 01:15:59;;;;;;;7.77;3.20;;;;;;;;;;3360668;42;20574;-61
2022/09/14 01:18:29;;;;;;;8.98;3.20;;;;;;;;;;3392863;42;20156;-61
2022/09/14 01:21:01;;;;;;;9.82;3.30;;;;;;;;;;3382566;42;20094;-62
2022/09/14 01:23:48;;;;;;;7.88;3.08;;;;;;;;;;3374359;42;20090;-61
2022/09/14 01:26:40;;;;;;;11.32;3.38;;;;;;;;;;3383271;42;20458;-61
2022/09/14 01:29:27;;;;;;;8.43;3.30;;;;;;;;;;3385451;42;20137;-62
2022/09/14 01:32:12;;;;;;;7.78;3.40;;;;;;;;;;3391031;42;20109;-59
2022/09/14 01:34:48;;;;;;;7.63;3.50;;;;;;;;;;3383341;42;20587;-61
2022/09/14 01:37:35;;;;;;;7.78;3.28;;;;;;;;;;3384309;42;20079;-61
2022/09/14 01:40:12;;;;;;;7.95;3.60;;;;;;;;;;3373210;42;20099;-62
2022/09/14 01:42:40;;;;;;;8.13;3.27;;;;;;;;;;3375884;42;20164;-60
2022/09/14 01:45:08;;;;;;;6.63;3.40;;;;;;;;;;3366260;42;20177;-62
2022/09/14 01:47:37;;;;;;;7.20;3.50;;;;;;;;;;3383505;42;20563;-61
2022/09/14 01:50:12;;;;;;;8.05;3.40;;;;;;;;;;3372418;42;20169;-62
2022/09/14 01:53:19;;;;;;;7.22;3.42;;;;;;;;;;3381164;42;20141;-61
2022/09/14 01:55:52;;;;;;;6.70;3.13;;;;;;;;;;3385747;42;20090;-60
2022/09/14 01:58:31;;;;;;;7.68;3.42;;;;;;;;;;3372287;42;20164;-60
2022/09/14 02:00:58;;;;;;;7.60;3.40;;;;;;;;;;3371944;42;20533;-60
2022/09/14 02:03:30;;;;;;;7.30;3.45;;;;;;;;;;3383820;42;20090;-61
2022/09/14 02:06:07;;;;;;;8.13;3.25;;;;;;;;;;3383883;42;20160;-61
2022/09/14 02:08:33;;;;;;;8.00;3.30;;;;;;;;;;3390645;42;20114;-62
2022/09/14 02:10:59;;;;;;;7.85;3.20;;;;;;;;;;3370104;42;20462;-61
2022/09/14 02:13:26;;;;;;;8.68;3.13;;;;;;;;;;3372967;42;20105;-62
2022/09/14 02:15:52;;;;;;;6.65;3.20;;;;;;;;;;3376605;42;20079;-61
2022/09/14 02:18:18;;;;;;;8.15;3.40;;;;;;;;;;3393244;42;20090;-61
2022/09/14 02:20:46;;;;;;;8.23;3.53;;;;;;;;;;3385385;42;20554;-61
2022/09/14 02:23:12;;;;;;;7.85;3.80;;;;;;;;;;3385450;42;20201;-60
2022/09/14 02:25:40;;;;;;;7.90;3.58;;;;;;;;;;3378084;42;20086;-63
2022/09/14 02:28:06;;;;;;;7.90;3.35;;;;;;;;;;3395074;42;20091;-61
2022/09/14 02:30:38;;;;;;;8.48;3.70;;;;;;;;;;3385730;42;20091;-61
2022/09/14 02:33:12;;;;;;;8.50;3.73;;;;;;;;;;3374809;42;20083;-62
2022/09/14 02:36:00;;;;;;;8.07;3.40;;;;;;;;;;3375651;42;20090;-61
2022/09/14 02:38:44;;;;;;;8.63;3.22;;;;;;;;;;3373406;42;20541;-61
2022/09/14 02:41:39;;;;;;;6.90;2.90;;;;;;;;;;3393411;42;20091;-60
2022/09/14 02:44:11;;;;;;;7.05;3.10;;;;;;;;;;3385698;42;20601;-62
2022/09/14 02:47:13;;;;;;;8.37;3.70;;;;;;;;;;3394193;42;20166;-61
2022/09/14 02:49:58;;;;;;;6.60;3.15;;;;;;;;;;3370569;42;20095;-61
2022/09/14 02:52:51;;;;;;;8.32;3.45;;;;;;;;;;3382120;42;20098;-62
2022/09/14 02:55:19;;;;;;;7.28;2.95;;;;;;;;;;3379252;42;20091;-62
2022/09/14 02:58:05;;;;;;;7.63;2.90;;;;;;;;;;3383734;42;20103;-61
2022/09/14 03:00:34;;;;;;;8.30;2.90;;;;;;;;;;3385241;42;20113;-61
2022/09/14 03:03:00;;;;;;;12.30;3.30;;;;;;;;;;3383991;42;20106;-61
2022/09/14 03:05:26;;;;;;;8.70;3.25;;;;;;;;;;3385092;42;20091;-62
2022/09/14 03:07:52;;;;;;;8.35;3.15;;;;;;;;;;3385259;42;20107;-61
2022/09/14 03:10:18;;;;;;;6.63;2.75;;;;;;;;;;3383619;42;20091;-61
2022/09/14 03:12:44;;;;;;;9.50;3.00;;;;;;;;;;3385218;42;20168;-62
2022/09/14 03:15:10;;;;;;;7.80;2.90;;;;;;;;;;3385013;42;20187;-62
2022/09/14 03:17:36;;;;;;;6.20;2.72;;;;;;;;;;3385009;42;20139;-62
2022/09/14 03:20:02;;;;;;;6.87;2.80;;;;;;;;;;3386440;42;20098;-61
2022/09/14 03:22:28;;;;;;;6.57;3.03;;;;;;;;;;3384374;42;20768;-60
2022/09/14 03:24:54;;;;;;;6.63;2.90;;;;;;;;;;3385312;42;20545;-61
2022/09/14 03:27:20;;;;;;;7.63;3.05;;;;;;;;;;3382884;42;20099;-61
2022/09/14 03:29:47;;;;;;;6.75;3.00;;;;;;;;;;3385331;42;20528;-61
2022/09/14 03:32:12;;;;;;;7.90;2.90;;;;;;;;;;3385436;42;20299;-61
2022/09/14 03:34:38;;;;;;;6.40;2.70;;;;;;;;;;3384589;42;20074;-61
2022/09/14 03:37:05;;;;;;;7.63;3.15;;;;;;;;;;3382088;42;20091;-61
2022/09/14 03:39:31;;;;;;;7.25;2.88;;;;;;;;;;3384984;42;20105;-61
2022/09/14 03:41:57;;;;;;;7.95;3.08;;;;;;;;;;3385259;42;20087;-61
2022/09/14 03:44:23;;;;;;;7.03;2.80;;;;;;;;;;3385135;42;20576;-62
2022/09/14 03:46:49;;;;;;;6.53;2.92;;;;;;;;;;3384803;42;20193;-61
2022/09/14 03:49:15;;;;;;;8.20;2.90;;;;;;;;;;3383122;42;20150;-62
2022/09/14 03:51:41;;;;;;;6.90;3.13;;;;;;;;;;3383242;42;20102;-61
2022/09/14 03:54:07;;;;;;;6.33;2.80;;;;;;;;;;3384656;42;20078;-62
2022/09/14 03:56:33;;;;;;;6.95;2.90;;;;;;;;;;3384306;42;20091;-61
2022/09/14 03:58:59;;;;;;;8.32;3.00;;;;;;;;;;3381801;42;20553;-61
2022/09/14 04:01:25;;;;;;;9.73;3.30;;;;;;;;;;3384564;42;20109;-61
2022/09/14 04:03:51;;;;;;;7.90;3.37;;;;;;;;;;3384288;42;20083;-64
2022/09/14 04:06:17;;;;;;;7.13;3.05;;;;;;;;;;3383021;42;20270;-59
2022/09/14 04:08:44;;;;;;;7.05;3.20;;;;;;;;;;3384488;42;20101;-61
2022/09/14 04:11:18;;;;;;;7.18;3.22;;;;;;;;;;3383457;42;20488;-60
2022/09/14 04:13:45;;;;;;;7.72;2.90;;;;;;;;;;3382969;42;20086;-61
2022/09/14 04:16:11;;;;;;;8.00;3.20;;;;;;;;;;3384609;42;20272;-61
2022/09/14 04:18:37;;;;;;;8.15;3.10;;;;;;;;;;3382946;42;20244;-61
2022/09/14 04:21:05;;;;;;;7.00;3.33;;;;;;;;;;3384941;42;20635;-60
2022/09/14 04:23:31;;;;;;;7.78;3.22;;;;;;;;;;3375447;42;20118;-61
2022/09/14 04:25:57;;;;;;;8.85;3.05;;;;;;;;;;3384561;42;20149;-61
2022/09/14 04:28:23;;;;;;;7.30;3.30;;;;;;;;;;3384190;42;20087;-60
2022/09/14 04:30:59;;;;;;;9.02;3.53;;;;;;;;;;3384426;42;20149;-62
2022/09/14 04:33:28;;;;;;;7.85;3.20;;;;;;;;;;3383015;42;20588;-61
2022/09/14 04:35:58;;;;;;;6.50;3.08;;;;;;;;;;3384047;42;20160;-62
2022/09/14 04:38:24;;;;;;;7.00;2.90;;;;;;;;;;3375298;42;20094;-61
2022/09/14 04:40:50;;;;;;;6.60;2.80;;;;;;;;;;3383896;42;20556;-60
2022/09/14 04:43:16;;;;;;;9.15;2.97;;;;;;;;;;3383910;42;20086;-62
2022/09/14 04:45:43;;;;;;;7.15;3.15;;;;;;;;;;3383938;42;20105;-62
2022/09/14 04:48:09;;;;;;;7.90;3.10;;;;;;;;;;3384206;42;20134;-59
2022/09/14 04:50:35;;;;;;;8.60;3.30;;;;;;;;;;3392666;42;20194;-60
2022/09/14 04:53:01;;;;;;;8.73;2.80;;;;;;;;;;3393168;42;20090;-62
2022/09/14 04:55:27;;;;;;;8.55;3.10;;;;;;;;;;3392958;42;20086;-61
2022/09/14 04:57:53;;;;;;;10.50;3.30;;;;;;;;;;3384049;42;20551;-62
2022/09/14 05:00:19;;;;;;;8.10;3.72;;;;;;;;;;3394234;42;20646;-61
2022/09/14 05:02:45;;;;;;;8.50;3.45;;;;;;;;;;3392902;42;20090;-60
2022/09/14 05:05:11;;;;;;;9.70;3.30;;;;;;;;;;3393289;42;20457;-61
2022/09/14 05:07:37;;;;;;;8.00;3.20;;;;;;;;;;3378258;42;20113;-61
2022/09/14 05:10:04;;;;;;;7.60;3.20;;;;;;;;;;3381507;42;20086;-60
2022/09/14 05:12:30;;;;;;;7.53;3.35;;;;;;;;;;3393735;42;20179;-62
2022/09/14 05:14:56;;;;;;;7.73;3.30;;;;;;;;;;3392471;42;20560;-63
2022/09/14 05:17:22;;;;;;;9.40;3.20;;;;;;;;;;3393312;42;20098;-62
2022/09/14 05:19:48;;;;;;;8.27;3.28;;;;;;;;;;3384133;42;20156;-62
2022/09/14 05:22:14;;;;;;;8.57;3.08;;;;;;;;;;3384639;42;20087;-61
2022/09/14 05:24:40;;;;;;;8.48;3.33;;;;;;;;;;3384043;42;20548;-60
2022/09/14 05:27:06;;;;;;;7.27;2.90;;;;;;;;;;3380024;42;20091;-61
2022/09/14 05:29:33;;;;;;;8.30;2.90;;;;;;;;;;3391932;42;20515;-61
2022/09/14 05:31:59;;;;;;;7.85;2.80;;;;;;;;;;3389022;42;20098;-61
2022/09/14 05:34:25;;;;;;;8.25;2.85;;;;;;;;;;3392094;42;20636;-62
2022/09/14 05:36:51;;;;;;;8.73;2.90;;;;;;;;;;3392060;42;21167;-62
2022/09/14 05:39:16;;;;;;;7.50;3.03;;;;;;;;;;3392721;42;20160;-61
2022/09/14 05:41:43;;;;;;;7.28;2.78;;;;;;;;;;3390597;42;20353;-61
2022/09/14 05:44:09;;;;;;;7.35;2.80;;;;;;;;;;3392803;42;20098;-61
2022/09/14 05:46:34;;;;;;;7.50;2.97;;;;;;;;;;3392554;42;20102;-60
2022/09/14 05:49:01;;;;;;;9.13;3.17;;;;;;;;;;3392179;42;20117;-61
2022/09/14 05:51:27;;;;;;;7.03;2.90;;;;;;;;;;3392546;42;20103;-61
2022/09/14 05:53:54;;;;;;;9.05;3.13;;;;;;;;;;3391955;42;20094;-61
2022/09/14 05:56:21;;;;;;;9.65;3.33;;;;;;;;;;3382707;42;20091;-62
2022/09/14 05:58:47;;;;;;;8.80;2.83;;;;;;;;;;3391887;42;20090;-61
2022/09/14 06:01:18;;;;;;;8.70;3.25;;;;;;;;;;3383692;42;20094;-62
2022/09/14 06:03:44;;;;;;;8.30;2.97;;;;;;;;;;3392598;42;20602;-62
2022/09/14 06:06:12;;;;;;;6.88;2.80;;;;;;;;;;3392050;42;20078;-62
2022/09/14 06:08:38;;;;;;;7.75;2.90;;;;;;;;;;3392536;42;20173;-63
2022/09/14 06:11:11;;;;;;;10.40;3.10;;;;;;;;;;3383272;42;20145;-62
2022/09/14 06:13:37;;;;;;;7.95;3.10;;;;;;;;;;3392249;42;20588;-59
2022/09/14 06:16:04;;;;;;;5.87;2.67;;;;;;;;;;3395256;42;20089;-59
2022/09/14 06:18:31;;;;;;;9.90;3.00;;;;;;;;;;3393938;42;20086;-61
2022/09/14 06:20:57;;;;;;;7.75;2.88;;;;;;;;;;3395610;42;20108;-60
2022/09/14 06:23:24;;;;;;;6.10;2.63;;;;;;;;;;3393465;42;20093;-61
2022/09/14 06:25:53;;;;;;;10.45;3.33;;;;;;;;;;3395343;42;20091;-61
2022/09/14 06:28:19;;;;;;;7.47;3.10;;;;;;;;;;3396498;42;20086;-60
2022/09/14 06:30:45;;;;;;;8.32;3.17;;;;;;;;;;3396397;42;20094;-60
2022/09/14 06:33:11;;;;;;;7.70;2.92;;;;;;;;;;3395729;42;20171;-61
2022/09/14 06:35:37;;;;;;;8.13;2.97;;;;;;;;;;3396749;42;20105;-60
2022/09/14 06:38:03;;;;;;;7.32;2.95;;;;;;;;;;3391094;42;20555;-60
2022/09/14 06:40:29;;;;;;;8.77;3.20;;;;;;;;;;3393290;42;20093;-61
2022/09/14 06:42:57;;;;;;;9.40;3.25;;;;;;;;;;3392259;42;20082;-61
2022/09/14 06:45:23;;;;;;;9.95;3.65;;;;;;;;;;3392456;42;20086;-61
2022/09/14 06:47:49;;;;;;;8.23;3.20;;;;;;;;;;3375753;42;20091;-61
2022/09/14 06:50:15;;;;;;;8.38;3.05;;;;;;;;;;3379168;42;20154;-61
2022/09/14 06:52:41;;;;;;;7.50;2.90;;;;;;;;;;3377230;42;20087;-62
2022/09/14 06:55:07;;;;;;;6.55;2.92;;;;;;;;;;3377310;42;20098;-60
2022/09/14 06:57:33;;;;;;;8.40;2.90;;;;;;;;;;3372654;42;20110;-60
2022/09/14 06:59:59;;;;;;;7.00;2.70;;;;;;;;;;3379131;42;20115;-60
2022/09/14 07:02:25;;;;;;;6.88;2.67;;;;;;;;;;3376167;42;20087;-60
2022/09/14 07:04:51;;;;;;;5.83;2.40;;;;;;;;;;3375616;42;20514;-62
2022/09/14 07:07:17;;;;;;;10.50;2.80;;;;;;;;;;3386745;42;20097;-60
2022/09/14 07:09:43;;;;;;;8.70;2.70;;;;;;;;;;3376626;42;20123;-61
2022/09/14 07:12:10;;;;;;;9.85;2.55;;;;;;;;;;3377571;42;20072;-60
2022/09/14 07:14:37;;;;;;;7.30;2.58;;;;;;;;;;3378826;42;20164;-62
2022/09/14 07:17:03;;;;;;;9.37;2.70;;;;;;;;;;3379109;42;20500;-61
2022/09/14 07:19:29;;;;;;;7.50;2.60;;;;;;;;;;3382496;42;20075;-62
2022/09/14 07:21:55;;;;;;;5.85;2.40;;;;;;;;;;3374267;42;20155;-62
2022/09/14 07:24:21;;;;;;;6.97;2.30;;;;;;;;;;3377254;42;20130;-63
2022/09/14 07:26:47;;;;;;;10.10;2.80;;;;;;;;;;3378433;42;20087;-60
2022/09/14 07:29:15;;;;;;;6.57;2.70;;;;;;;;;;3378077;42;20107;-58
2022/09/14 07:31:42;;;;;;;8.32;2.70;;;;;;;;;;3379169;42;20095;-58
2022/09/14 07:34:08;;;;;;;6.80;2.40;;;;;;;;;;3381394;42;20090;-63
2022/09/14 07:36:35;;;;;;;7.67;2.57;;;;;;;;;;3379473;42;20139;-60
2022/09/14 07:39:02;;;;;;;8.98;2.80;;;;;;;;;;3379617;42;20144;-60
2022/09/14 07:41:28;;;;;;;7.72;2.72;;;;;;;;;;3380469;42;20555;-60
2022/09/14 07:43:56;;;;;;;11.35;2.65;;;;;;;;;;3370923;42;20094;-60
2022/09/14 07:46:22;;;;;;;8.38;2.30;;;;;;;;;;3375945;42;20676;-60
2022/09/14 07:48:48;;;;;;;7.57;2.10;;;;;;;;;;3384899;42;20654;-61
2022/09/14 07:51:14;;;;;;;8.00;2.35;;;;;;;;;;3383804;42;20171;-60
2022/09/14 07:53:41;;;;;;;7.07;2.40;;;;;;;;;;3384763;42;20128;-61
2022/09/14 07:56:08;;;;;;;9.00;1.90;;;;;;;;;;3393797;42;20137;-58
2022/09/14 07:58:34;;;;;;;9.05;2.60;;;;;;;;;;3398313;42;20074;-58
2022/09/14 08:01:01;;;;;;;9.47;2.20;;;;;;;;;;3393546;42;20094;-60
2022/09/14 08:03:28;;;;;;;9.38;2.33;;;;;;;;;;3384716;42;20109;-58
2022/09/14 08:06:00;;;;;;;8.25;2.13;;;;;;;;;;3384579;42;20142;-60
2022/09/14 08:08:28;;;;;;;7.28;2.22;;;;;;;;;;3393132;42;20171;-61
2022/09/14 08:10:56;;;;;;;9.05;2.15;;;;;;;;;;3393543;42;20548;-60
2022/09/14 08:13:22;;;;;;;7.90;2.20;;;;;;;;;;3393874;42;20093;-62
2022/09/14 08:15:48;;;;;;;7.30;2.33;;;;;;;;;;3393879;42;20079;-63
2022/09/14 08:18:14;;;;;;;9.18;3.03;;;;;;;;;;3393822;42;20264;-61
2022/09/14 08:20:40;;;;;;;10.02;2.20;;;;;;;;;;3393178;42;20095;-61
2022/09/14 08:23:06;;;;;;;8.37;2.43;;;;;;;;;;3393200;42;20121;-60
2022/09/14 08:25:32;;;;;;;9.75;3.00;;;;;;;;;;3392805;42;20121;-60
2022/09/14 08:27:58;;;;;;;11.35;3.28;;;;;;;;;;3393119;42;20118;-59
2022/09/14 08:30:24;;;;;;;7.53;2.95;;;;;;;;;;3382778;42;20230;-58
2022/09/14 08:32:50;;;;;;;11.23;3.10;;;;;;;;;;3393010;42;20576;-60
2022/09/14 08:35:16;;;;;;;8.73;2.50;;;;;;;;;;3384333;42;20634;-58
2022/09/14 08:37:42;;;;;;;10.25;2.78;;;;;;;;;;3393326;42;20161;-61
2022/09/14 08:40:10;;;;;;;10.23;2.80;;;;;;;;;;3393605;42;20159;-59
2022/09/14 08:42:36;;;;;;;10.53;2.90;;;;;;;;;;3377398;42;20118;-60
2022/09/14 08:45:02;;;;;;;9.38;3.00;;;;;;;;;;3372996;42;20548;-59
2022/09/14 08:47:37;;;;;;;10.60;3.40;;;;;;;;;;3382544;42;20217;-59
2022/09/14 08:50:04;;;;;;;12.30;3.30;;;;;;;;;;3373858;42;20083;-63
2022/09/14 08:52:37;;;;;;;10.32;2.63;;;;;;;;;;3382477;42;20134;-61
2022/09/14 08:55:15;;;;;;;9.57;3.00;;;;;;;;;;3383778;42;20141;-62
2022/09/14 08:58:01;;;;;;;8.50;2.60;;;;;;;;;;3393809;42;20109;-61
2022/09/14 09:00:41;;;;;;;7.97;2.60;;;;;;;;;;3384854;42;20174;-61
2022/09/14 09:03:43;;;;;;;9.30;2.80;;;;;;;;;;3383234;42;20550;-63
2022/09/14 09:06:18;;;;;;;7.90;2.25;;;;;;;;;;3391408;42;20086;-59
2022/09/14 09:08:56;;;;;;;9.73;2.73;;;;;;;;;;3390501;42;20141;-60
2022/09/14 09:11:23;;;;;;;8.90;3.20;;;;;;;;;;3380907;42;20139;-61
2022/09/14 09:13:49;;;;;;;12.27;2.70;;;;;;;;;;3383882;42;20086;-60
2022/09/14 09:16:17;;;;;;;7.88;2.85;;;;;;;;;;3383150;42;20156;-60
2022/09/14 09:18:46;;;;;;;10.52;2.80;;;;;;;;;;3392692;42;20090;-59
2022/09/14 09:21:23;;;;;;;9.27;3.00;;;;;;;;;;3371047;42;20091;-60
2022/09/14 09:23:49;;;;;;;12.60;2.92;;;;;;;;;;3383663;42;20329;-60
2022/09/14 09:26:28;;;;;;;11.52;2.63;;;;;;;;;;3382870;42;20314;-59
2022/09/14 09:28:57;;;;;;;9.65;2.90;;;;;;;;;;3372795;42;20098;-58
2022/09/14 09:31:27;;;;;;;14.02;2.80;;;;;;;;;;3384322;42;20094;-58
2022/09/14 09:33:53;;;;;;;12.17;3.00;;;;;;;;;;3383280;42;20091;-61
2022/09/14 09:36:19;;;;;;;9.18;2.30;;;;;;;;;;3382456;42;20079;-59
2022/09/14 09:38:45;;;;;;;8.38;2.60;;;;;;;;;;3392866;42;20100;-61
2022/09/14 09:41:25;;;;;;;14.00;3.38;;;;;;;;;;3384524;42;20078;-60
2022/09/14 09:44:08;;;;;;;9.63;2.73;;;;;;;;;;3392296;42;20086;-60
2022/09/14 09:46:38;;;;;;;10.27;2.50;;;;;;;;;;3392662;42;20094;-62
2022/09/14 09:49:16;;;;;;;10.60;2.53;;;;;;;;;;3381948;42;20098;-61
2022/09/14 09:51:42;;;;;;;11.20;3.13;;;;;;;;;;3390600;42;20121;-62
2022/09/14 09:54:11;;;;;;;11.47;2.53;;;;;;;;;;3382272;42;20156;-61
2022/09/14 09:56:57;;;;;;;13.00;3.27;;;;;;;;;;3392467;42;20292;-63
2022/09/14 09:59:31;;;;;;;7.68;2.85;;;;;;;;;;3383215;42;20583;-61
2022/09/14 10:02:19;;;;;;;10.18;2.80;;;;;;;;;;3392510;42;20105;-61
2022/09/14 10:05:04;;;;;;;12.05;2.80;;;;;;;;;;3392434;42;20121;-61
2022/09/14 10:07:35;;;;;;;8.75;2.75;;;;;;;;;;3392747;42;20087;-63
2022/09/14 10:10:07;;;;;;;10.00;2.60;;;;;;;;;;3392701;42;20102;-60
2022/09/14 10:12:34;;;;;;;8.60;2.65;;;;;;;;;;3375023;42;20105;-59
2022/09/14 10:15:17;;;;;;;7.38;2.80;;;;;;;;;;3392701;42;20165;-60
2022/09/14 10:18:02;;;;;;;6.50;2.30;;;;;;;;;;3383494;42;20150;-60
2022/09/14 10:20:28;;;;;;;7.10;2.33;;;;;;;;;;3394321;42;20085;-59
2022/09/14 10:22:54;;;;;;;6.97;2.30;;;;;;;;;;3380325;42;20074;-61
2022/09/14 10:25:24;;;;;;;9.57;2.70;;;;;;;;;;3391785;42;20090;-61
2022/09/14 10:28:19;;;;;;;7.10;2.38;;;;;;;;;;3397320;42;20113;-59
2022/09/14 10:31:07;;;;;;;7.15;2.25;;;;;;;;;;3390012;42;20132;-59
2022/09/14 10:33:34;;;;;;;7.87;2.27;;;;;;;;;;3375978;42;20090;-63
2022/09/14 10:36:13;;;;;;;9.88;2.38;;;;;;;;;;3382924;42;20099;-60
2022/09/14 10:38:52;;;;;;;10.45;2.55;;;;;;;;;;3373790;42;20138;-62
2022/09/14 10:41:29;;;;;;;9.10;2.00;;;;;;;;;;3380853;42;20197;-59
2022/09/14 10:43:58;;;;;;;7.07;2.25;;;;;;;;;;3382761;42;20137;-59
2022/09/14 10:46:29;;;;;;;8.33;2.30;;;;;;;;;;3392968;42;20110;-60
2022/09/14 10:49:24;;;;;;;7.53;2.08;;;;;;;;;;3379988;42;20132;-60
2022/09/14 10:51:57;;;;;;;11.43;2.88;;;;;;;;;;3371475;42;20130;-57
2022/09/14 10:54:56;;;;;;;8.32;2.00;;;;;;;;;;3379169;42;20135;-59
2022/09/14 10:57:44;;;;;;;10.32;2.20;;;;;;;;;;3378988;42;20079;-59
2022/09/14 11:00:17;;;;;;;6.57;2.30;;;;;;;;;;3375500;42;20075;-61
2022/09/14 11:03:06;;;;;;;11.02;2.40;;;;;;;;;;3373539;42;20561;-61
2022/09/14 11:06:04;;;;;;;9.80;2.72;;;;;;;;;;3377331;42;20229;-57
2022/09/14 11:08:32;;;;;;;10.38;2.60;;;;;;;;;;3368290;42;20134;-62
2022/09/14 11:11:04;;;;;;;9.00;2.58;;;;;;;;;;3381960;42;20095;-60
2022/09/14 11:13:48;;;;;;;9.93;2.97;;;;;;;;;;3379971;42;20087;-60
2022/09/14 11:16:33;;;;;;;7.65;2.10;;;;;;;;;;3378718;42;20122;-59
2022/09/14 11:19:03;;;;;;;9.38;2.70;;;;;;;;;;3379641;42;20626;-60
2022/09/14 11:21:33;;;;;;;8.43;2.30;;;;;;;;;;3379961;42;20091;-59
2022/09/14 11:24:16;;;;;;;10.95;2.60;;;;;;;;;;3372644;42;20550;-59
2022/09/14 11:26:53;;;;;;;14.83;2.50;;;;;;;;;;3377232;42;20159;-58
2022/09/14 11:29:45;;;;;;;9.95;2.42;;;;;;;;;;3373625;42;20181;-57
2022/09/14 11:32:27;;;;;;;13.15;2.58;;;;;;;;;;3371503;42;20092;-59
2022/09/14 11:35:02;;;;;;;12.02;2.90;;;;;;;;;;3377339;42;20532;-57
2022/09/14 11:37:56;;;;;;;9.52;2.45;;;;;;;;;;3371391;42;20453;-59
2022/09/14 11:40:35;;;;;;;12.53;2.27;;;;;;;;;;3373178;42;20126;-57
2022/09/14 11:43:14;;;;;;;9.73;2.40;;;;;;;;;;3380723;42;20095;-58
2022/09/14 11:45:44;;;;;;;10.68;2.67;;;;;;;;;;3379011;42;20164;-62
2022/09/14 11:48:10;;;;;;;14.13;2.70;;;;;;;;;;3371614;42;20087;-59
2022/09/14 11:50:36;;;;;;;12.05;2.45;;;;;;;;;;3393360;42;20152;-59
2022/09/14 11:53:14;;;;;;;7.47;2.17;;;;;;;;;;3382791;42;20094;-61
2022/09/14 11:55:46;;;;;;;13.75;2.70;;;;;;;;;;3394797;42;20075;-59
2022/09/14 11:58:17;;;;;;;9.15;2.70;;;;;;;;;;3387978;42;20607;-59
2022/09/14 12:01:02;;;;;;;8.52;2.25;;;;;;;;;;3388063;42;20592;-59
2022/09/14 12:04:00;;;;;;;12.98;2.50;;;;;;;;;;3393974;42;20090;-59
2022/09/14 12:06:29;;;;;;;7.77;2.70;;;;;;;;;;3390232;42;20117;-60
2022/09/14 12:09:19;;;;;;;8.88;2.45;;;;;;;;;;3394377;42;20167;-64
2022/09/14 12:11:47;;;;;;;7.35;2.60;;;;;;;;;;3390940;42;20105;-62
2022/09/14 12:14:23;;;;;;;9.77;2.60;;;;;;;;;;3393415;42;20078;-60
2022/09/14 12:17:21;;;;;;;10.07;2.90;;;;;;;;;;3392932;42;20686;-61
2022/09/14 12:19:48;;;;;;;8.87;2.77;;;;;;;;;;3392927;42;20129;-61
2022/09/14 12:22:32;;;;;;;9.35;2.50;;;;;;;;;;3387559;42;20564;-62
2022/09/14 12:25:08;;;;;;;9.73;2.95;;;;;;;;;;3393319;42;20090;-61
2022/09/14 12:27:39;;;;;;;8.52;2.85;;;;;;;;;;3391644;42;20094;-60
2022/09/14 12:30:39;;;;;;;10.65;3.17;;;;;;;;;;3372799;42;20146;-62
2022/09/14 12:33:31;;;;;;;7.60;2.67;;;;;;;;;;3392910;42;20085;-60
2022/09/14 12:36:00;;;;;;;9.05;2.70;;;;;;;;;;3376210;42;20146;-60
2022/09/14 12:38:29;;;;;;;9.75;2.85;;;;;;;;;;3384128;42;20074;-60
2022/09/14 12:40:55;;;;;;;12.00;2.35;;;;;;;;;;3393805;42;20154;-60
2022/09/14 12:43:33;;;;;;;10.05;2.80;;;;;;;;;;3390859;42;20146;-59
2022/09/14 12:46:03;;;;;;;11.60;2.70;;;;;;;;;;3394000;42;20177;-60
2022/09/14 12:48:45;;;;;;;10.00;2.75;;;;;;;;;;3382242;42;20138;-60
2022/09/14 12:51:30;;;;;;;8.43;2.60;;;;;;;;;;3393316;42;20117;-58
2022/09/14 12:54:08;;;;;;;6.15;2.40;;;;;;;;;;3392445;42;20083;-60
2022/09/14 12:56:39;;;;;;;7.60;2.53;;;;;;;;;;3393867;42;20090;-59
2022/09/14 12:59:24;;;;;;;10.00;2.70;;;;;;;;;;3393134;42;20114;-58
2022/09/14 13:02:33;;;;;;;9.43;2.65;;;;;;;;;;3391725;42;20216;-59
2022/09/14 13:04:59;;;;;;;11.02;2.92;;;;;;;;;;3391410;42;20583;-59
2022/09/14 13:07:31;;;;;;;10.85;3.30;;;;;;;;;;3392832;42;20086;-60
2022/09/14 13:09:57;;;;;;;10.07;3.10;;;;;;;;;;3384038;42;20104;-61
2022/09/14 13:12:30;;;;;;;10.20;3.13;;;;;;;;;;3372588;42;20090;-61
2022/09/14 13:15:02;;;;;;;8.73;2.67;;;;;;;;;;3373152;42;20201;-60
2022/09/14 13:17:28;;;;;;;10.80;3.22;;;;;;;;;;3384099;42;20078;-62
2022/09/14 13:19:59;;;;;;;7.82;2.90;;;;;;;;;;3382583;42;20563;-61
2022/09/14 13:22:28;;;;;;;13.00;3.00;;;;;;;;;;3393026;42;20102;-60
2022/09/14 13:24:55;;;;;;;9.63;3.47;;;;;;;;;;3392808;42;20090;-61
2022/09/14 13:27:31;;;;;;;9.63;3.08;;;;;;;;;;3392801;42;20152;-61
2022/09/14 13:30:16;;;;;;;12.73;3.15;;;;;;;;;;3377517;42;20095;-62
2022/09/14 13:32:44;;;;;;;9.95;2.97;;;;;;;;;;3378463;42;20152;-63
2022/09/14 13:35:28;;;;;;;7.40;3.20;;;;;;;;;;3382927;42;20109;-59
2022/09/14 13:37:55;;;;;;;13.03;3.40;;;;;;;;;;3373797;42;20148;-61
2022/09/14 13:40:23;;;;;;;10.00;2.78;;;;;;;;;;3393019;42;20094;-62
2022/09/14 13:42:48;;;;;;;10.02;2.90;;;;;;;;;;3384335;42;20563;-62
2022/09/14 13:45:15;;;;;;;10.52;2.78;;;;;;;;;;3383524;42;20091;-60
2022/09/14 13:47:40;;;;;;;9.15;2.80;;;;;;;;;;3383780;42;20098;-61
2022/09/14 13:50:07;;;;;;;8.57;2.90;;;;;;;;;;3383663;42;20101;-62
2022/09/14 13:52:37;;;;;;;8.45;3.03;;;;;;;;;;3383849;42;20160;-61
2022/09/14 13:55:21;;;;;;;11.23;3.70;;;;;;;;;;3392442;42;20130;-62
2022/09/14 13:58:09;;;;;;;10.68;3.20;;;;;;;;;;3393812;42;20090;-62
2022/09/14 14:01:02;;;;;;;12.07;3.10;;;;;;;;;;3392132;42;20101;-60
2022/09/14 14:03:38;;;;;;;11.10;3.10;;;;;;;;;;3392873;42;20105;-61
2022/09/14 14:06:25;;;;;;;8.43;3.17;;;;;;;;;;3379412;42;20105;-63
2022/09/14 14:08:53;;;;;;;10.43;3.42;;;;;;;;;;3391498;42;20149;-61
2022/09/14 14:11:38;;;;;;;8.52;3.85;;;;;;;;;;3363139;42;20472;-60
2022/09/14 14:14:16;;;;;;;8.90;3.30;;;;;;;;;;3383620;42;20168;-56
2022/09/14 14:17:20;;;;;;;10.48;3.40;;;;;;;;;;3389991;42;20090;-60
2022/09/14 14:19:46;;;;;;;10.13;3.72;;;;;;;;;;3389608;42;20091;-61
2022/09/14 14:22:19;;;;;;;8.48;3.60;;;;;;;;;;3380118;42;20158;-61
2022/09/14 14:24:46;;;;;;;9.25;4.25;;;;;;;;;;3389451;42;20094;-62
2022/09/14 14:27:29;;;;;;;13.10;4.20;;;;;;;;;;3383179;42;20116;-62
2022/09/14 14:29:55;;;;;;;10.27;4.15;;;;;;;;;;3376461;42;20877;-60
2022/09/14 14:32:21;;;;;;;11.18;4.50;;;;;;;;;;3382358;42;20142;-62
2022/09/14 14:34:47;;;;;;;11.65;4.63;;;;;;;;;;3383002;42;20125;-61
2022/09/14 14:37:13;;;;;;;13.00;4.90;;;;;;;;;;3380076;42;20086;-60
2022/09/14 14:39:39;;;;;;;11.77;5.03;;;;;;;;;;3392458;42;20159;-62
2022/09/14 14:42:06;;;;;;;16.73;5.05;;;;;;;;;;3383203;42;20082;-62
2022/09/14 14:44:32;;;;;;;11.25;4.60;;;;;;;;;;3368317;42;20122;-61
2022/09/14 14:46:58;;;;;;;12.85;5.38;;;;;;;;;;3375208;42;20647;-61
2022/09/14 14:49:24;;;;;;;12.87;4.70;;;;;;;;;;3391856;42;20101;-65
2022/09/14 14:51:50;;;;;;;15.88;4.72;;;;;;;;;;3394424;42;20090;-62
2022/09/14 14:54:17;;;;;;;12.95;4.90;;;;;;;;;;3388754;42;20599;-58
2022/09/14 14:56:48;;;;;;;11.10;4.50;;;;;;;;;;3392792;42;20102;-61
2022/09/14 14:59:15;;;;;;;13.43;4.38;;;;;;;;;;3393541;42;20102;-61
2022/09/14 15:01:41;;;;;;;13.83;4.50;;;;;;;;;;3384417;42;20094;-62
2022/09/14 15:04:07;;;;;;;16.23;4.68;;;;;;;;;;3391770;42;20562;-63
2022/09/14 15:06:33;;;;;;;12.48;4.30;;;;;;;;;;3396558;42;20128;-61